FW2556 Weather Reports


Display with metric or nautical units.
time (UTC)temp
F
wind
direction
speed
MPH
gust
MPH
rain 1hr
in
rain 24hr
in
rain mn
in
humidity
%
barometer
mb
20200329151605 81 105 10.0 18.0 0.00 0.00 0.00 69 1022.0
20200329150605 80 112 10.0 16.0 0.00 0.00 0.00 71 1022.1
20200329145605 79 98 9.0 18.0 0.00 0.00 0.00 72 1022.2
20200329144604 79 120 4.0 13.0 0.00 0.00 0.00 75 1022.2
20200329144105 79 108 8.0 14.0 0.00 0.00 0.00 74 1022.1
20200329143605 78 81 2.0 10.0 0.00 0.00 0.00 77 1022.1
20200329143105 78 124 1.0 7.0 0.00 0.00 0.00 77 1022.1
20200329142605 78 49 3.0 12.0 0.00 0.00 0.00 78 1022.1
20200329141604 77 104 0.0 7.0 0.00 0.00 0.00 81 1022.1
20200329141104 76 81 1.0 8.0 0.00 0.00 0.00 81 1022.1
20200329140605 76 38 0.0 7.0 0.00 0.00 0.00 83 1022.1
20200329140105 75 51 1.0 7.0 0.00 0.00 0.00 83 1022.1
20200329135605 75 71 0.0 1.0 0.00 0.00 0.00 85 1022.1
20200329135104 74 62 2.0 8.0 0.00 0.00 0.00 85 1022.1
20200329134104 74 12 0.0 5.0 0.00 0.00 0.00 86 1021.9
20200329133604 73 38 0.0 3.0 0.00 0.00 0.00 87 1021.9
20200329133105 73 346 0.0 0.0 0.00 0.00 0.00 88 1021.8
20200329132605 73 47 0.0 3.0 0.00 0.00 0.00 88 1021.8
20200329132105 72 49 1.0 7.0 0.00 0.00 0.00 89 1021.7
20200329131605 72 49 0.0 5.0 0.00 0.00 0.00 89 1021.7
20200329131105 72 32 0.0 5.0 0.00 0.00 0.00 89 1021.7
20200329130605 71 48 3.0 6.0 0.00 0.00 0.00 90 1021.6
20200329130105 71 0 0.0 1.0 0.00 0.00 0.00 90 1021.5
20200329125605 71 51 0.0 1.0 0.00 0.00 0.00 90 1021.5
20200329124604 70 323 0.0 3.0 0.00 0.00 0.00 91 1021.5
20200329123105 69 48 0.0 1.0 0.00 0.00 0.00 92 1021.4
20200329122605 69 48 0.0 3.0 0.00 0.00 0.00 91 1021.3
20200329122105 69 72 0.0 3.0 0.00 0.00 0.00 92 1021.3
20200329121605 69 93 0.0 3.0 0.00 0.00 0.00 92 1021.1
20200329121105 69 74 1.0 3.0 0.00 0.00 0.00 92 1021.0
20200329120105 68 95 0.0 1.0 0.00 0.00 0.00 92 1020.9
20200329115604 68 94 0.0 3.0 0.00 0.00 0.00 92 1020.9
20200329115105 68 76 0.0 0.0 0.00 0.00 0.00 92 1020.7
20200329114604 68 105 0.0 1.0 0.00 0.00 0.00 92 1020.6
20200329114105 68 80 0.0 6.0 0.00 0.00 0.00 92 1020.6
20200329113605 68 85 0.0 1.0 0.00 0.00 0.00 92 1020.5
20200329113105 68 67 1.0 3.0 0.00 0.00 0.00 92 1020.4
20200329112605 68 72 1.0 3.0 0.00 0.00 0.00 92 1020.4
20200329112105 68 102 0.0 1.0 0.00 0.00 0.00 92 1020.3
20200329111604 68 99 0.0 5.0 0.00 0.00 0.00 92 1020.2
20200329111105 68 88 0.0 1.0 0.00 0.00 0.00 92 1020.1
20200329110605 68 88 0.0 0.0 0.00 0.00 0.00 92 1020.1
20200329110105 68 88 0.0 0.0 0.00 0.00 0.00 92 1019.9
20200329105605 68 89 0.0 0.0 0.00 0.00 0.00 92 1019.9
20200329104605 68 89 0.0 0.0 0.00 0.00 0.00 92 1019.7
20200329104105 68 90 0.0 0.0 0.00 0.00 0.00 92 1019.6
20200329103607 68 92 0.0 0.0 0.00 0.00 0.00 92 1019.6
20200329103104 68 89 0.0 0.0 0.00 0.00 0.00 92 1019.5
20200329102605 68 96 0.0 0.0 0.00 0.00 0.00 92 1019.4
20200329101604 68 90 0.0 2.0 0.00 0.00 0.00 92 1019.2
20200329101105 68 90 0.0 1.0 0.00 0.00 0.00 92 1019.2
20200329100605 69 86 0.0 1.0 0.00 0.00 0.00 92 1019.2
20200329100104 69 81 0.0 3.0 0.00 0.00 0.00 92 1019.1
20200329094604 69 80 0.0 1.0 0.00 0.00 0.00 92 1018.9
20200329093605 69 86 0.0 3.0 0.00 0.00 0.00 92 1018.9
20200329092605 69 78 0.0 0.0 0.00 0.00 0.00 92 1018.8
20200329092105 69 78 0.0 0.0 0.00 0.00 0.00 91 1018.7
20200329090605 70 77 0.0 1.0 0.00 0.00 0.00 92 1018.7
20200329090105 70 64 0.0 1.0 0.00 0.00 0.00 92 1018.7
20200329084605 70 66 0.0 1.0 0.00 0.00 0.00 91 1018.5
20200329083105 71 53 0.0 1.0 0.00 0.00 0.00 91 1018.5
20200329082104 71 64 0.0 1.0 0.00 0.00 0.00 91 1018.5
20200329081605 71 66 0.0 0.0 0.00 0.00 0.00 91 1018.5
20200329081105 71 59 0.0 1.0 0.00 0.00 0.00 91 1018.5
20200329080105 71 57 0.0 0.0 0.00 0.00 0.00 91 1018.5
20200329075605 71 57 0.0 0.0 0.00 0.00 0.00 91 1018.5
20200329075105 71 56 0.0 0.0 0.00 0.00 0.00 91 1018.4
20200329074105 71 55 0.0 0.0 0.00 0.00 0.00 91 1018.4
20200329073604 72 55 0.0 0.0 0.00 0.00 0.00 91 1018.4
20200329073105 72 54 0.0 0.0 0.00 0.00 0.00 91 1018.4
20200329072604 72 54 0.0 3.0 0.00 0.00 0.00 90 1018.4
20200329071605 72 76 0.0 3.0 0.00 0.00 0.00 90 1018.5
20200329071105 72 81 0.0 3.0 0.00 0.00 0.00 90 1018.5
20200329065605 72 102 3.0 6.0 0.00 0.00 0.00 90 1018.6
20200329065105 73 108 5.0 8.0 0.00 0.00 0.00 90 1018.6
20200329064104 73 247 0.0 0.0 0.00 0.00 0.00 90 1018.7
20200329063605 73 248 0.0 0.0 0.00 0.00 0.00 90 1018.7
20200329062105 73 249 0.0 0.0 0.00 0.00 0.00 90 1018.8
20200329061604 73 249 0.0 0.0 0.00 0.00 0.00 90 1018.8
20200329061109 73 249 0.0 0.0 0.00 0.00 0.00 90 1018.8
20200329060105 73 249 0.0 1.0 0.00 0.00 0.00 90 1018.9
20200329055605 73 249 0.0 0.0 0.00 0.00 0.00 90 1018.8
20200329054105 72 249 0.0 0.0 0.00 0.00 0.00 90 1018.8
20200329053105 72 249 0.0 0.0 0.00 0.00 0.00 90 1018.9
20200329052605 72 249 0.0 0.0 0.00 0.00 0.00 90 1019.0
20200329052105 72 249 0.0 1.0 0.00 0.00 0.00 90 1019.0
20200329051604 72 245 0.0 1.0 0.00 0.00 0.00 90 1019.0
20200329044605 72 196 0.0 0.0 0.00 0.00 0.00 90 1019.2
20200329044104 72 196 0.0 0.0 0.00 0.00 0.00 90 1019.2
20200329043105 72 196 0.0 0.0 0.00 0.00 0.00 89 1019.2
20200329035105 73 196 0.0 0.0 0.00 0.00 0.00 88 1019.3
20200329034604 73 196 0.0 0.0 0.00 0.00 0.00 88 1019.3
20200329034105 73 196 0.0 0.0 0.00 0.00 0.00 88 1019.3
20200329033605 73 196 0.0 0.0 0.00 0.00 0.00 88 1019.3
20200329032104 74 196 0.0 0.0 0.00 0.00 0.00 88 1019.2
20200329031605 74 196 0.0 0.0 0.00 0.00 0.00 87 1019.2
20200329031104 74 196 0.0 0.0 0.00 0.00 0.00 87 1019.3
20200329030605 74 196 0.0 0.0 0.00 0.00 0.00 87 1019.1
20200329030105 74 196 0.0 0.0 0.00 0.00 0.00 87 1019.1
20200329025605 75 196 0.0 0.0 0.00 0.00 0.00 87 1019.1
20200329024605 75 198 0.0 0.0 0.00 0.00 0.00 87 1019.1
20200329024104 75 198 0.0 0.0 0.00 0.00 0.00 87 1019.1
20200329023605 75 198 0.0 0.0 0.00 0.00 0.00 87 1019.0
20200329022605 75 198 0.0 0.0 0.00 0.00 0.00 86 1019.0
20200329021105 76 198 0.0 0.0 0.00 0.00 0.00 86 1018.7
20200329020105 76 198 1.0 3.0 0.00 0.00 0.00 86 1018.6
20200329015604 76 198 0.0 2.0 0.00 0.00 0.00 86 1018.5
20200329015105 76 198 0.0 2.0 0.00 0.00 0.00 86 1018.5
20200329013605 76 199 0.0 3.0 0.00 0.00 0.00 85 1018.2
20200329013104 76 202 2.0 5.0 0.00 0.00 0.00 85 1018.2
20200329012605 76 180 1.0 7.0 0.00 0.00 0.00 85 1018.1
20200329011104 76 188 1.0 5.0 0.00 0.00 0.00 85 1018.0
20200329010605 76 195 2.0 7.0 0.00 0.00 0.00 85 1017.9
20200329005604 76 184 1.0 5.0 0.00 0.00 0.00 84 1017.7
20200329005105 76 173 2.0 5.0 0.00 0.00 0.00 84 1017.8
20200329004106 76 205 3.0 6.0 0.00 0.00 0.00 84 1017.7
20200329003604 76 177 3.0 7.0 0.00 0.00 0.00 83 1017.7
20200329003105 76 203 4.0 7.0 0.00 0.00 0.00 83 1017.7
20200329002604 76 210 3.0 9.0 0.00 0.00 0.00 83 1017.8
20200329002104 77 224 0.0 8.0 0.00 0.00 0.00 83 1017.8
20200329001604 77 207 4.0 6.0 0.00 0.00 0.00 83 1017.7
20200329001105 77 215 1.0 6.0 0.00 0.00 0.00 83 1017.7
20200329000605 77 200 3.0 7.0 0.00 0.00 0.00 82 1017.6
20200329000105 77 209 3.0 6.0 0.00 0.00 0.00 82 1017.7
20200328235605 77 206 2.0 7.0 0.00 0.00 0.00 82 1017.7
20200328235105 77 206 5.0 8.0 0.00 0.00 0.00 81 1017.5
20200328234604 77 202 3.0 8.0 0.00 0.00 0.00 81 1017.5
20200328234104 77 204 3.0 7.0 0.00 0.00 0.00 81 1017.5
20200328233604 77 217 5.0 9.0 0.00 0.00 0.00 80 1017.5
20200328233104 78 217 2.0 7.0 0.00 0.00 0.00 80 1017.5
20200328232605 78 193 3.0 10.0 0.00 0.00 0.00 80 1017.5
20200328232105 78 210 5.0 12.0 0.00 0.00 0.00 79 1017.5
20200328231605 78 206 7.0 10.0 0.00 0.00 0.00 79 1017.5
20200328231104 78 203 6.0 10.0 0.00 0.00 0.00 78 1017.4
20200328225104 78 208 6.0 12.0 0.00 0.00 0.00 79 1017.4
20200328224605 78 206 9.0 12.0 0.00 0.00 0.00 79 1017.3
20200328224104 79 207 8.0 12.0 0.00 0.00 0.00 79 1017.3
20200328223604 79 215 5.0 12.0 0.00 0.00 0.00 79 1017.2
20200328223104 79 195 7.0 15.0 0.00 0.00 0.00 78 1017.1
20200328222105 79 191 3.0 10.0 0.00 0.00 0.00 79 1017.0
20200328221604 79 189 6.0 10.0 0.00 0.00 0.00 79 1017.0
20200328221105 79 195 7.0 13.0 0.00 0.00 0.00 79 1016.9
20200328220604 79 204 7.0 12.0 0.00 0.00 0.00 79 1016.9
20200328220105 79 194 7.0 16.0 0.00 0.00 0.00 79 1016.9
20200328215605 79 198 7.0 14.0 0.00 0.00 0.00 79 1016.8
20200328215105 79 203 11.0 16.0 0.00 0.00 0.00 79 1016.8
20200328214605 79 199 10.0 17.0 0.00 0.00 0.00 79 1016.8
20200328214105 79 199 7.0 15.0 0.00 0.00 0.00 79 1016.8
20200328213604 79 200 10.0 18.0 0.00 0.00 0.00 78 1016.8
20200328213105 79 185 9.0 16.0 0.00 0.00 0.00 78 1016.7
20200328212604 79 197 9.0 20.0 0.00 0.00 0.00 78 1016.8
20200328211604 79 198 9.0 16.0 0.00 0.00 0.00 77 1016.8
20200328211105 79 194 13.0 18.0 0.00 0.00 0.00 77 1016.8
20200328210605 80 205 9.0 16.0 0.00 0.00 0.00 76 1016.8
20200328210105 80 205 9.0 18.0 0.00 0.00 0.00 77 1016.9
20200328205604 79 185 7.0 18.0 0.00 0.00 0.00 77 1016.8
20200328205105 79 196 12.0 20.0 0.00 0.00 0.00 77 1016.8
20200328204605 79 202 8.0 20.0 0.00 0.00 0.00 77 1016.8
20200328204105 79 202 14.0 20.0 0.00 0.00 0.00 76 1016.8
20200328203105 79 212 15.0 22.0 0.00 0.00 0.00 76 1016.8
20200328202605 80 200 12.0 20.0 0.00 0.00 0.00 76 1016.8
20200328201604 80 203 13.0 20.0 0.00 0.00 0.00 75 1016.9
20200328200104 80 195 11.0 18.0 0.00 0.00 0.00 75 1017.0
20200328194604 80 216 12.0 20.0 0.00 0.00 0.00 74 1017.1
20200328194105 80 196 7.0 20.0 0.00 0.00 0.00 75 1017.1
20200328193614 80 197 12.0 20.0 0.00 0.00 0.00 74 1017.2
20200328192605 80 206 10.0 22.0 0.00 0.00 0.00 75 1017.3
20200328192104 80 207 8.0 18.0 0.00 0.00 0.00 75 1017.3
20200328190605 80 195 12.0 20.0 0.00 0.00 0.00 75 1017.4
20200328185702 80 213 11.0 18.0 0.00 0.00 0.00 74 1017.6
20200328185104 81 214 6.0 20.0 0.00 0.00 0.00 74 1017.7
20200328184105 80 201 8.0 17.0 0.00 0.00 0.00 74 1017.8
20200328183604 80 214 8.0 16.0 0.00 0.00 0.00 74 1017.8
20200328182604 80 195 10.0 20.0 0.00 0.00 0.00 73 1017.9
20200328181604 80 194 9.0 18.0 0.00 0.00 0.00 74 1018.0
20200328181105 80 185 12.0 20.0 0.00 0.00 0.00 73 1018.1
20200328180605 80 204 10.0 18.0 0.00 0.00 0.00 72 1018.2
20200328180105 80 195 11.0 20.0 0.00 0.00 0.00 73 1018.2
20200328175604 80 168 11.0 20.0 0.00 0.00 0.00 73 1018.3
20200328175105 81 200 13.0 20.0 0.00 0.00 0.00 72 1018.3
20200328174604 81 186 9.0 18.0 0.00 0.00 0.00 72 1018.3
20200328174104 80 192 10.0 21.0 0.00 0.00 0.00 73 1018.4
20200328173105 81 189 10.0 16.0 0.00 0.00 0.00 71 1018.4
20200328172104 81 195 9.0 17.0 0.00 0.00 0.00 70 1018.5
20200328171605 80 165 6.0 16.0 0.00 0.00 0.00 70 1018.6
20200328171105 80 202 7.0 15.0 0.00 0.00 0.00 71 1018.6
20200328170105 81 198 10.0 18.0 0.00 0.00 0.00 69 1018.7
20200328165605 80 194 9.0 20.0 0.00 0.00 0.00 70 1018.7
20200328164105 82 194 4.0 14.0 0.00 0.00 0.00 68 1018.8
20200328161604 84 164 1.0 12.0 0.00 0.00 0.00 58 1019.2
20200328160604 83 119 2.0 12.0 0.00 0.00 0.00 56 1019.2
20200328160105 83 113 7.0 14.0 0.00 0.00 0.00 56 1019.3
20200328154604 82 125 3.0 8.0 0.00 0.00 0.00 61 1019.3
20200328154105 82 136 4.0 10.0 0.00 0.00 0.00 61 1019.4
20200328153605 81 125 5.0 12.0 0.00 0.00 0.00 62 1019.4
20200328153105 81 105 4.0 13.0 0.00 0.00 0.00 63 1019.4
20200328152605 80 105 6.0 13.0 0.00 0.00 0.00 63 1019.4
20200328152104 81 105 12.0 16.0 0.00 0.00 0.00 63 1019.4